createdAt,value
2019-04-01T04:42:50.523Z,43.80
2019-04-01T04:45:19.683Z,41.30
2019-04-01T04:47:48.842Z,40.37
2019-04-01T04:50:18.003Z,41.00
2019-04-01T04:52:47.151Z,41.40
2019-04-01T04:55:16.327Z,39.27
2019-04-01T04:57:45.632Z,41.90
2019-04-01T05:00:15.207Z,39.80
2019-04-01T05:02:44.447Z,39.80
2019-04-01T05:05:13.907Z,42.30
2019-04-01T05:07:43.195Z,41.87
2019-04-01T05:10:12.570Z,41.30
2019-04-01T05:12:41.883Z,41.93
2019-04-01T05:15:11.327Z,40.63
2019-04-01T05:17:46.298Z,39.97
2019-04-01T05:20:16.644Z,38.23
2019-04-01T05:22:48.574Z,38.83
2019-04-01T05:25:17.920Z,38.13
2019-04-01T05:27:50.084Z,39.00
2019-04-01T05:30:19.359Z,39.80
2019-04-01T05:32:50.881Z,38.83
2019-04-01T05:35:20.534Z,30.07
2019-04-01T05:37:49.697Z,35.63
2019-04-01T05:40:21.260Z,36.20
2019-04-01T05:42:50.818Z,36.43
2019-04-01T05:45:23.135Z,36.20
2019-04-01T05:47:54.681Z,36.47
2019-04-01T05:50:23.951Z,37.57
2019-04-01T05:52:53.113Z,36.90
2019-04-01T05:55:24.579Z,36.07
2019-04-01T05:57:53.747Z,35.80
2019-04-01T06:00:35.101Z,36.67
2019-04-01T06:03:04.926Z,35.67
2019-04-01T06:05:34.572Z,35.77
2019-04-01T06:08:03.848Z,34.90
2019-04-01T06:10:33.071Z,34.30
2019-04-01T06:15:38.394Z,33.50
2019-04-01T06:18:09.509Z,31.40
2019-04-01T06:20:39.795Z,32.37
2019-04-01T06:23:09.043Z,31.03
2019-04-01T06:25:38.206Z,30.97
2019-04-01T06:28:07.368Z,30.07
2019-04-01T06:30:40.006Z,29.50
2019-04-01T06:33:12.495Z,31.30
2019-04-01T06:35:41.683Z,29.23
2019-04-01T06:38:12.387Z,29.30
2019-04-01T06:40:41.558Z,28.67
2019-04-01T06:43:10.824Z,29.13
2019-04-01T06:45:40.599Z,28.27
2019-04-01T06:48:10.222Z,28.97
2019-04-01T06:50:39.699Z,29.63
2019-04-01T06:53:09.499Z,28.70
2019-04-01T06:55:38.652Z,29.37
2019-04-01T06:58:08.144Z,28.97
2019-04-01T07:00:37.461Z,28.73
2019-04-01T07:03:06.599Z,28.33
2019-04-01T07:05:36.686Z,29.33
2019-04-01T07:08:08.272Z,29.27
2019-04-01T07:10:37.818Z,27.97
2019-04-01T07:13:07.691Z,28.50
2019-04-01T07:15:37.399Z,29.10
2019-04-01T07:18:06.585Z,28.47
2019-04-01T07:20:35.756Z,28.33
2019-04-01T07:23:08.719Z,29.03
2019-04-01T07:25:37.901Z,27.43
2019-04-01T07:28:07.076Z,29.50
2019-04-01T07:30:36.358Z,29.30
2019-04-01T07:33:05.535Z,28.97
2019-04-01T07:35:34.739Z,27.83
2019-04-01T07:38:06.462Z,29.10
2019-04-01T07:40:36.373Z,28.50
2019-04-01T07:43:06.288Z,28.83
2019-04-01T07:45:39.786Z,28.60
2019-04-01T07:48:12.325Z,27.87
2019-04-01T07:50:40.104Z,29.10
2019-04-01T07:53:09.263Z,28.63
2019-04-01T07:55:40.342Z,28.10
2019-04-01T07:58:10.200Z,28.93
2019-04-01T08:00:41.816Z,28.27
2019-04-01T08:03:11.035Z,28.70
2019-04-01T08:05:40.290Z,29.43
2019-04-01T08:08:09.981Z,28.17
2019-04-01T08:10:39.489Z,28.77
2019-04-01T08:13:12.440Z,27.43
2019-04-01T08:15:42.669Z,29.90
2019-04-01T08:18:11.938Z,29.07
2019-04-01T08:20:45.851Z,29.50
2019-04-01T08:23:15.387Z,29.33
2019-04-01T08:25:47.758Z,28.53
2019-04-01T08:28:15.643Z,29.10
2019-04-01T08:30:44.793Z,28.50
2019-04-01T08:33:13.965Z,28.70
2019-04-01T08:35:46.137Z,28.03
2019-04-01T08:38:15.513Z,27.97
2019-04-01T08:40:44.767Z,28.33
2019-04-01T08:43:14.442Z,28.43
2019-04-01T08:45:46.349Z,28.40
2019-04-01T08:48:15.550Z,27.17
2019-04-01T08:50:45.295Z,27.83
2019-04-01T08:53:14.557Z,27.67
2019-04-01T08:55:43.808Z,28.33
2019-04-01T08:58:13.032Z,28.40
2019-04-01T09:00:42.169Z,26.80
2019-04-01T09:03:11.571Z,27.93
2019-04-01T09:05:40.932Z,28.43
2019-04-01T09:08:10.137Z,27.83
2019-04-01T09:10:40.126Z,27.27
2019-04-01T09:13:12.036Z,27.13
2019-04-01T09:15:42.408Z,26.67
2019-04-01T09:18:13.682Z,25.97
2019-04-01T09:20:42.930Z,25.93
2019-04-01T09:23:12.360Z,25.17
2019-04-01T09:25:41.559Z,25.03
2019-04-01T09:28:10.747Z,27.07
2019-04-01T09:30:39.923Z,26.50
2019-04-01T09:33:09.202Z,27.30
2019-04-01T09:35:40.871Z,25.40
2019-04-01T09:38:09.938Z,26.77
2019-04-01T09:40:39.272Z,25.73
2019-04-01T09:43:08.454Z,27.07
2019-04-01T09:45:42.864Z,26.50
2019-04-01T09:48:12.187Z,26.67
2019-04-01T09:50:41.464Z,27.07
2019-04-01T09:53:12.148Z,26.30
2019-04-01T09:55:41.384Z,26.93
2019-04-01T09:58:10.955Z,26.97
2019-04-01T10:00:40.126Z,27.30
2019-04-01T10:03:09.315Z,25.70
2019-04-01T10:05:39.688Z,26.73
2019-04-01T10:08:12.025Z,27.40
2019-04-01T10:10:41.186Z,26.77
2019-04-01T10:13:10.344Z,25.20
2019-04-01T10:15:39.538Z,26.17
2019-04-01T10:18:08.699Z,26.53
2019-04-01T10:20:37.879Z,25.93
2019-04-01T10:23:07.279Z,26.13
2019-04-01T10:25:36.493Z,26.63
2019-04-01T10:28:06.716Z,26.27
2019-04-01T10:30:35.919Z,25.60
2019-04-01T10:33:07.059Z,26.30
2019-04-01T10:35:36.319Z,28.02
2019-04-01T10:38:05.647Z,27.10
2019-04-01T10:40:35.882Z,26.73
2019-04-01T10:43:05.072Z,25.90
2019-04-01T10:45:34.265Z,25.27
2019-04-01T10:48:03.443Z,26.20
2019-04-01T10:50:32.797Z,25.77
2019-04-01T10:53:02.255Z,25.67
2019-04-01T10:55:32.088Z,25.43
2019-04-01T10:58:01.544Z,24.43
2019-04-01T11:00:31.213Z,26.20
2019-04-01T11:03:06.043Z,26.03
2019-04-01T11:05:38.400Z,26.77
2019-04-01T11:08:08.068Z,25.63
2019-04-01T11:10:37.361Z,25.40
2019-04-01T11:13:06.591Z,25.77
2019-04-01T11:15:35.943Z,26.83
2019-04-01T11:18:05.176Z,26.30
2019-04-01T11:20:34.391Z,26.43
2019-04-01T11:23:04.979Z,26.50
2019-04-01T11:25:34.813Z,27.40
2019-04-01T11:28:04.003Z,26.03
2019-04-01T11:30:36.723Z,26.40
2019-04-01T11:33:07.583Z,26.70
2019-04-01T11:35:37.206Z,25.87
2019-04-01T11:38:06.493Z,26.83
2019-04-01T11:40:38.760Z,26.10
2019-04-01T11:43:09.546Z,25.30
2019-04-01T11:45:46.346Z,26.77
2019-04-01T11:48:15.717Z,25.90
2019-04-01T11:50:47.929Z,25.97
2019-04-01T11:53:18.923Z,27.20
2019-04-01T11:55:48.138Z,25.23
2019-04-01T11:58:17.397Z,25.93
2019-04-01T12:00:46.635Z,27.27
2019-04-01T12:03:16.033Z,26.50
2019-04-01T12:05:45.193Z,27.43
2019-04-01T12:08:17.008Z,26.43
2019-04-01T12:10:46.245Z,26.03
2019-04-01T12:13:18.230Z,25.73
2019-04-01T12:15:47.472Z,25.57
2019-04-01T12:18:16.645Z,26.27
2019-04-01T12:20:46.184Z,25.03
2019-04-01T12:23:15.562Z,24.40
2019-04-01T12:25:45.906Z,24.30
2019-04-01T12:28:15.305Z,25.00
2019-04-01T12:30:44.603Z,24.60
2019-04-01T12:33:13.944Z,25.13
2019-04-01T12:35:43.200Z,25.10
2019-04-01T12:38:12.448Z,24.93
2019-04-01T12:40:41.610Z,24.23
2019-04-01T12:43:10.779Z,24.20
2019-04-01T12:45:40.569Z,23.00
2019-04-01T12:48:10.144Z,23.67
2019-04-01T12:50:39.390Z,24.17
2019-04-01T12:53:10.011Z,23.40
2019-04-01T12:55:40.400Z,23.43
2019-04-01T12:58:09.851Z,23.63
2019-04-01T13:00:40.728Z,22.77
2019-04-01T13:03:10.118Z,23.40
2019-04-01T13:05:40.778Z,23.73
2019-04-01T13:08:10.368Z,20.70
2019-04-01T13:10:39.577Z,23.27
2019-04-01T13:13:08.758Z,20.40
2019-04-01T13:15:37.916Z,21.27
2019-04-01T13:18:07.125Z,21.93
2019-04-01T13:20:38.483Z,22.33
2019-04-01T13:23:08.191Z,23.10
2019-04-01T13:25:38.358Z,21.43
2019-04-01T13:28:12.550Z,19.53
2019-04-01T13:30:41.746Z,20.30
2019-04-01T13:33:10.993Z,20.00
2019-04-01T13:35:40.298Z,20.50
2019-04-01T13:38:11.244Z,19.30
2019-04-01T13:40:41.316Z,19.37
2019-04-01T13:43:12.553Z,20.37
2019-04-01T13:45:42.267Z,18.33
2019-04-01T13:48:11.984Z,19.97
2019-04-01T13:50:41.330Z,18.83
2019-04-01T13:53:10.755Z,19.50
2019-04-01T13:55:39.988Z,19.30
2019-04-01T13:58:10.512Z,18.83
2019-04-01T14:00:40.160Z,19.90
2019-04-01T14:03:11.171Z,19.20
2019-04-01T14:05:40.252Z,18.60
2019-04-01T14:08:09.682Z,19.20
2019-04-01T14:10:40.522Z,18.80
2019-04-01T14:13:09.840Z,18.83
2019-04-01T14:15:41.081Z,19.23
2019-04-01T14:18:09.955Z,18.57
2019-04-01T14:20:40.081Z,18.17
2019-04-01T14:23:12.034Z,18.20
2019-04-01T14:25:42.284Z,19.20
2019-04-01T14:28:12.451Z,20.20
2019-04-01T14:30:42.099Z,19.10
2019-04-01T14:33:11.351Z,18.30
2019-04-01T14:35:40.553Z,18.80
2019-04-01T14:38:11.179Z,18.37
2019-04-01T14:40:40.503Z,17.43
2019-04-01T14:43:10.858Z,17.07
2019-04-01T14:45:41.745Z,18.67
2019-04-01T14:48:12.417Z,18.03
2019-04-01T14:50:41.595Z,18.33
2019-04-01T14:53:10.790Z,18.20
2019-04-01T14:55:40.125Z,17.30
2019-04-01T14:58:10.104Z,17.20
2019-04-01T15:00:39.313Z,18.40
2019-04-01T15:03:09.001Z,16.50
2019-04-01T15:05:38.371Z,17.43
2019-04-01T15:08:07.525Z,17.13
2019-04-01T15:10:36.799Z,17.70
2019-04-01T15:13:06.225Z,18.17
2019-04-01T15:15:35.797Z,17.80
2019-04-01T15:18:05.014Z,16.90
2019-04-01T15:20:34.213Z,17.30
2019-04-01T15:23:03.726Z,17.10
2019-04-01T15:25:34.041Z,17.13
2019-04-01T15:28:03.222Z,17.10
2019-04-01T15:30:32.436Z,17.23
2019-04-01T15:33:04.586Z,17.30
2019-04-01T15:35:33.838Z,17.23
2019-04-01T15:38:03.140Z,16.80
2019-04-01T15:40:34.827Z,16.73
2019-04-01T15:43:05.582Z,17.57
2019-04-01T15:45:35.471Z,15.00
2019-04-01T15:48:07.528Z,17.37
2019-04-01T15:50:38.315Z,16.43
2019-04-01T15:53:07.756Z,17.10
2019-04-01T15:55:36.962Z,16.13
2019-04-01T15:58:06.194Z,16.47
2019-04-01T16:00:35.437Z,16.77
2019-04-01T16:03:04.729Z,16.80
2019-04-01T16:05:34.338Z,16.47
2019-04-01T16:08:04.034Z,16.10
2019-04-01T16:10:35.646Z,15.80
2019-04-01T16:13:04.903Z,15.60
2019-04-01T16:15:34.100Z,14.20
2019-04-01T16:18:03.468Z,16.23
2019-04-01T16:20:34.559Z,16.83
2019-04-01T16:23:19.984Z,14.80
2019-04-01T16:25:49.222Z,16.87
2019-04-01T16:28:18.421Z,16.70
2019-04-01T16:30:49.368Z,16.43
2019-04-01T16:33:18.652Z,17.03
2019-04-01T16:35:47.890Z,17.27
2019-04-01T16:38:17.092Z,17.83
2019-04-01T16:40:47.067Z,17.67
2019-04-01T16:43:21.661Z,16.93
2019-04-01T16:45:50.841Z,16.77
2019-04-01T16:48:20.003Z,16.10
2019-04-01T16:50:49.173Z,16.73
2019-04-01T16:53:18.420Z,15.77
2019-04-01T16:55:47.866Z,15.63
2019-04-01T16:58:17.043Z,15.83
2019-04-01T17:00:46.214Z,15.80
2019-04-01T17:03:15.825Z,15.30
2019-04-01T17:05:46.808Z,15.97
2019-04-01T17:08:16.173Z,16.20
2019-04-01T17:10:45.448Z,14.80
2019-04-01T17:13:14.908Z,16.20
2019-04-01T17:15:44.154Z,16.47
2019-04-01T17:18:13.409Z,15.73
2019-04-01T17:20:42.604Z,16.47
2019-04-01T17:23:11.894Z,16.87
2019-04-01T17:25:41.036Z,16.83
2019-04-01T17:28:11.735Z,16.57
2019-04-01T17:30:40.971Z,15.70
2019-04-01T17:33:10.282Z,16.40
2019-04-01T17:35:39.760Z,15.63
2019-04-01T17:38:13.723Z,17.43
2019-04-01T17:40:45.171Z,16.60
2019-04-01T17:43:16.238Z,16.80
2019-04-01T17:45:47.437Z,16.60
2019-04-01T17:48:16.914Z,16.67
2019-04-01T17:50:46.237Z,16.70
2019-04-01T17:53:15.542Z,17.50
2019-04-01T17:55:45.747Z,17.47
2019-04-01T17:58:15.954Z,16.63
2019-04-01T18:00:51.969Z,16.77
2019-04-01T18:03:21.275Z,16.70
2019-04-01T18:05:50.526Z,19.13
2019-04-01T18:08:20.174Z,16.73
2019-04-01T18:10:51.894Z,17.30
2019-04-01T18:13:21.280Z,20.40
2019-04-01T18:15:51.817Z,20.97
2019-04-01T18:18:26.990Z,18.67
2019-04-01T18:20:51.962Z,19.20
2019-04-01T18:23:24.096Z,18.13
2019-04-01T18:25:53.394Z,18.60
2019-04-01T18:28:22.600Z,18.27
2019-04-01T18:30:51.773Z,20.70
2019-04-01T18:33:21.151Z,17.37
2019-04-01T18:35:50.471Z,18.97
2019-04-01T18:38:19.750Z,16.93
2019-04-01T18:40:49.031Z,16.43
2019-04-01T18:43:18.350Z,16.73
2019-04-01T18:45:47.569Z,16.53
2019-04-01T18:48:17.122Z,16.40
2019-04-01T18:50:46.384Z,16.37
2019-04-01T18:53:15.835Z,17.92
2019-04-01T18:55:45.093Z,17.33
2019-04-01T18:58:14.429Z,18.07
2019-04-01T19:00:43.712Z,16.23
2019-04-01T19:03:13.528Z,17.23
2019-04-01T19:05:42.740Z,16.47
2019-04-01T19:08:12.047Z,15.67
2019-04-01T19:10:44.516Z,17.03
2019-04-01T19:13:13.865Z,16.90
2019-04-01T19:15:43.806Z,15.50
2019-04-01T19:18:13.598Z,15.43
2019-04-01T19:20:55.763Z,15.53
2019-04-01T19:23:14.624Z,16.50
2019-04-01T19:25:43.818Z,14.83
2019-04-01T19:28:13.441Z,15.10
2019-04-01T19:30:44.307Z,15.73
2019-04-01T19:33:13.499Z,15.30
2019-04-01T19:35:45.850Z,15.83
2019-04-01T19:38:15.043Z,15.60
2019-04-01T19:40:46.038Z,15.43
2019-04-01T19:43:16.359Z,15.27
2019-04-01T19:45:46.248Z,14.63
2019-04-01T19:48:17.102Z,15.20
2019-04-01T19:50:46.483Z,13.70
2019-04-01T19:53:16.852Z,13.83
2019-04-01T19:55:48.981Z,14.20
2019-04-01T19:58:18.212Z,14.13
2019-04-01T20:00:47.758Z,14.33
2019-04-01T20:03:16.949Z,14.10
2019-04-01T20:05:46.290Z,15.17
2019-04-01T20:08:17.582Z,14.33
2019-04-01T20:10:54.102Z,14.53
2019-04-01T20:13:23.436Z,14.43
2019-04-01T20:15:53.031Z,14.60
2019-04-01T20:18:22.425Z,13.93
2019-04-01T20:20:52.062Z,14.63
2019-04-01T20:23:22.159Z,15.13
2019-04-01T20:25:52.855Z,13.83
2019-04-01T20:28:22.127Z,13.97
2019-04-01T20:30:51.354Z,13.77
2019-04-01T20:33:21.072Z,14.33
2019-04-01T20:35:50.635Z,14.20
2019-04-01T20:38:19.840Z,13.70
2019-04-01T20:40:49.132Z,14.70
2019-04-01T20:43:18.303Z,14.10
2019-04-01T20:45:47.526Z,14.33
2019-04-01T20:48:16.749Z,13.97
2019-04-01T20:50:46.232Z,13.80
2019-04-01T20:53:15.458Z,13.67
2019-04-01T20:55:48.451Z,14.07
2019-04-01T20:58:16.833Z,13.47
2019-04-01T21:00:46.090Z,13.57
2019-04-01T21:03:18.056Z,14.60
2019-04-01T21:05:47.232Z,13.40
2019-04-01T21:08:17.888Z,13.73
2019-04-01T21:10:47.214Z,13.40
2019-04-01T21:13:16.562Z,12.80
2019-04-01T21:15:45.738Z,13.73
2019-04-01T21:18:16.835Z,12.97
2019-04-01T21:20:52.294Z,13.20
2019-04-01T21:23:21.527Z,13.30
2019-04-01T21:25:50.676Z,13.47
2019-04-01T21:28:22.642Z,13.17
2019-04-01T21:30:50.771Z,13.87
2019-04-01T21:33:20.040Z,13.67
2019-04-01T21:35:50.385Z,13.40
2019-04-01T21:38:19.726Z,13.07
2019-04-01T21:40:48.963Z,13.03
2019-04-01T21:43:19.190Z,12.10
2019-04-01T21:45:49.102Z,12.73
2019-04-01T21:48:18.471Z,12.33
2019-04-01T21:50:47.826Z,12.03
2019-04-01T21:53:16.966Z,12.57
2019-04-01T21:55:46.183Z,12.30
2019-04-01T21:58:15.483Z,12.37
